sensor_id;sensor_type;location;lat;lon;timestamp;pressure;altitude;pressure_sealevel;temperature;humidity
54994;BME280;40891;47.242;8.648;2023-01-26T00:01:16;96789.56;;;1.12;97.45
54994;BME280;40891;47.242;8.648;2023-01-26T00:03:42;96789.53;;;1.08;97.53
54994;BME280;40891;47.242;8.648;2023-01-26T00:06:10;96788.41;;;1.16;96.97
54994;BME280;40891;47.242;8.648;2023-01-26T00:08:37;96782.13;;;1.12;97.58
54994;BME280;40891;47.242;8.648;2023-01-26T00:11:04;96781.34;;;1.12;98.03
54994;BME280;40891;47.242;8.648;2023-01-26T00:13:30;96776.25;;;1.10;97.28
54994;BME280;40891;47.242;8.648;2023-01-26T00:15:56;96761.38;;;1.11;97.93
54994;BME280;40891;47.242;8.648;2023-01-26T00:18:21;96759.84;;;1.10;97.43
54994;BME280;40891;47.242;8.648;2023-01-26T00:20:46;96757.69;;;1.48;95.03
54994;BME280;40891;47.242;8.648;2023-01-26T00:23:12;96762.41;;;1.54;93.84
54994;BME280;40891;47.242;8.648;2023-01-26T00:25:38;96748.28;;;1.42;93.30
54994;BME280;40891;47.242;8.648;2023-01-26T00:28:06;96750.16;;;1.27;94.87
54994;BME280;40891;47.242;8.648;2023-01-26T00:30:31;96752.88;;;1.27;94.58
54994;BME280;40891;47.242;8.648;2023-01-26T00:32:56;96746.69;;;1.37;93.21
54994;BME280;40891;47.242;8.648;2023-01-26T00:35:23;96749.44;;;1.37;94.51
54994;BME280;40891;47.242;8.648;2023-01-26T00:37:48;96743.47;;;1.24;95.21
54994;BME280;40891;47.242;8.648;2023-01-26T00:40:13;96746.19;;;1.17;95.21
54994;BME280;40891;47.242;8.648;2023-01-26T00:42:39;96745.81;;;1.26;95.04
54994;BME280;40891;47.242;8.648;2023-01-26T00:45:05;96740.41;;;1.36;95.14
54994;BME280;40891;47.242;8.648;2023-01-26T00:47:30;96746.97;;;1.18;95.24
54994;BME280;40891;47.242;8.648;2023-01-26T00:49:55;96752.06;;;1.16;95.78
54994;BME280;40891;47.242;8.648;2023-01-26T00:52:21;96750.03;;;1.09;95.68
54994;BME280;40891;47.242;8.648;2023-01-26T00:54:46;96746.53;;;1.12;95.13
54994;BME280;40891;47.242;8.648;2023-01-26T00:57:11;96748.09;;;1.06;95.80
54994;BME280;40891;47.242;8.648;2023-01-26T00:59:37;96756.66;;;1.01;95.63
54994;BME280;40891;47.242;8.648;2023-01-26T01:02:02;96744.91;;;1.01;96.79
54994;BME280;40891;47.242;8.648;2023-01-26T01:04:29;96746.13;;;1.10;96.41
54994;BME280;40891;47.242;8.648;2023-01-26T01:06:55;96749.31;;;1.19;96.34
54994;BME280;40891;47.242;8.648;2023-01-26T01:09:21;96744.19;;;1.11;96.23
54994;BME280;40891;47.242;8.648;2023-01-26T01:11:47;96759.03;;;1.06;96.44
54994;BME280;40891;47.242;8.648;2023-01-26T01:14:13;96745.34;;;1.10;96.23
54994;BME280;40891;47.242;8.648;2023-01-26T01:16:39;96751.34;;;1.29;95.85
54994;BME280;40891;47.242;8.648;2023-01-26T01:19:06;96741.94;;;1.27;96.14
54994;BME280;40891;47.242;8.648;2023-01-26T01:21:31;96743.03;;;1.15;95.31
54994;BME280;40891;47.242;8.648;2023-01-26T01:23:57;96745.81;;;1.26;94.37
54994;BME280;40891;47.242;8.648;2023-01-26T01:26:23;96741.94;;;1.27;93.97
54994;BME280;40891;47.242;8.648;2023-01-26T01:28:52;96747.06;;;1.35;93.67
54994;BME280;40891;47.242;8.648;2023-01-26T01:31:18;96740.38;;;1.33;93.39
54994;BME280;40891;47.242;8.648;2023-01-26T01:33:43;96741.19;;;1.30;94.21
54994;BME280;40891;47.242;8.648;2023-01-26T01:36:13;96741.91;;;1.23;94.57
54994;BME280;40891;47.242;8.648;2023-01-26T01:38:40;96739.13;;;1.16;95.35
54994;BME280;40891;47.242;8.648;2023-01-26T01:41:06;96740.00;;;1.31;95.05
54994;BME280;40891;47.242;8.648;2023-01-26T01:43:32;96732.50;;;1.17;95.38
54994;BME280;40891;47.242;8.648;2023-01-26T01:45:59;96728.56;;;1.15;95.24
54994;BME280;40891;47.242;8.648;2023-01-26T01:48:47;96731.31;;;1.15;94.80
54994;BME280;40891;47.242;8.648;2023-01-26T01:51:35;96737.94;;;1.10;95.52
54994;BME280;40891;47.242;8.648;2023-01-26T01:54:08;96724.63;;;1.12;95.08
54994;BME280;40891;47.242;8.648;2023-01-26T01:56:37;96732.06;;;1.08;95.13
54994;BME280;40891;47.242;8.648;2023-01-26T01:59:05;96732.44;;;1.10;95.65
54994;BME280;40891;47.242;8.648;2023-01-26T02:01:32;96721.50;;;1.14;94.99
54994;BME280;40891;47.242;8.648;2023-01-26T02:03:59;96719.97;;;1.16;95.80
54994;BME280;40891;47.242;8.648;2023-01-26T02:06:39;96715.28;;;1.13;95.86
54994;BME280;40891;47.242;8.648;2023-01-26T02:09:06;96717.22;;;1.16;95.15
54994;BME280;40891;47.242;8.648;2023-01-26T02:11:40;96713.28;;;1.14;95.26
54994;BME280;40891;47.242;8.648;2023-01-26T02:14:10;96719.56;;;1.14;94.91
54994;BME280;40891;47.242;8.648;2023-01-26T02:16:38;96719.59;;;1.21;94.60
54994;BME280;40891;47.242;8.648;2023-01-26T02:19:11;96711.00;;;1.19;95.19
54994;BME280;40891;47.242;8.648;2023-01-26T02:21:44;96714.13;;;1.21;94.86
54994;BME280;40891;47.242;8.648;2023-01-26T02:24:24;96711.78;;;1.23;94.54
54994;BME280;40891;47.242;8.648;2023-01-26T02:26:52;96704.03;;;1.32;93.46
54994;BME280;40891;47.242;8.648;2023-01-26T02:29:18;96700.53;;;1.43;93.41
54994;BME280;40891;47.242;8.648;2023-01-26T02:31:45;96697.31;;;1.26;94.07
54994;BME280;40891;47.242;8.648;2023-01-26T02:34:10;96689.09;;;1.19;94.67
54994;BME280;40891;47.242;8.648;2023-01-26T02:36:35;96692.22;;;1.21;95.01
54994;BME280;40891;47.242;8.648;2023-01-26T02:39:41;96690.25;;;1.15;94.72
54994;BME280;40891;47.242;8.648;2023-01-26T02:42:08;96683.16;;;1.03;95.48
54994;BME280;40891;47.242;8.648;2023-01-26T02:44:52;96689.38;;;0.97;95.97
54994;BME280;40891;47.242;8.648;2023-01-26T02:47:18;96687.41;;;0.97;96.05
54994;BME280;40891;47.242;8.648;2023-01-26T02:49:43;96684.66;;;0.94;95.79
54994;BME280;40891;47.242;8.648;2023-01-26T02:52:22;96675.69;;;1.00;95.50
54994;BME280;40891;47.242;8.648;2023-01-26T02:54:49;96672.25;;;1.21;94.45
54994;BME280;40891;47.242;8.648;2023-01-26T02:57:34;96673.34;;;1.02;94.65
54994;BME280;40891;47.242;8.648;2023-01-26T03:00:00;96668.31;;;1.08;95.13
54994;BME280;40891;47.242;8.648;2023-01-26T03:02:26;96669.06;;;1.01;94.83
54994;BME280;40891;47.242;8.648;2023-01-26T03:04:51;96664.75;;;0.97;94.78
54994;BME280;40891;47.242;8.648;2023-01-26T03:07:17;96653.41;;;0.98;95.78
54994;BME280;40891;47.242;8.648;2023-01-26T03:09:42;96654.91;;;0.89;95.77
54994;BME280;40891;47.242;8.648;2023-01-26T03:12:08;96654.13;;;0.88;96.59
54994;BME280;40891;47.242;8.648;2023-01-26T03:14:33;96654.91;;;0.85;97.34
54994;BME280;40891;47.242;8.648;2023-01-26T03:16:58;96645.50;;;0.86;97.34
54994;BME280;40891;47.242;8.648;2023-01-26T03:19:24;96648.66;;;0.88;96.87
54994;BME280;40891;47.242;8.648;2023-01-26T03:22:09;96650.97;;;0.86;96.81
54994;BME280;40891;47.242;8.648;2023-01-26T03:24:54;96656.06;;;0.84;97.36
54994;BME280;40891;47.242;8.648;2023-01-26T03:27:44;96653.31;;;0.84;97.56
54994;BME280;40891;47.242;8.648;2023-01-26T03:30:11;96659.19;;;0.86;97.89
54994;BME280;40891;47.242;8.648;2023-01-26T03:32:36;96649.44;;;0.89;97.70
54994;BME280;40891;47.242;8.648;2023-01-26T03:35:02;96647.84;;;0.88;97.97
54994;BME280;40891;47.242;8.648;2023-01-26T03:37:27;96645.50;;;0.86;97.99
54994;BME280;40891;47.242;8.648;2023-01-26T03:40:02;96650.97;;;0.86;97.57
54994;BME280;40891;47.242;8.648;2023-01-26T03:43:07;96649.84;;;0.87;97.30
54994;BME280;40891;47.242;8.648;2023-01-26T03:45:51;96644.75;;;0.89;97.14
54994;BME280;40891;47.242;8.648;2023-01-26T03:48:35;96646.31;;;0.87;95.93
54994;BME280;40891;47.242;8.648;2023-01-26T03:51:19;96642.03;;;0.89;96.96
54994;BME280;40891;47.242;8.648;2023-01-26T03:54:03;96644.75;;;0.89;96.70
54994;BME280;40891;47.242;8.648;2023-01-26T03:56:47;96632.25;;;0.95;97.01
54994;BME280;40891;47.242;8.648;2023-01-26T03:59:12;96630.34;;;1.03;96.77
54994;BME280;40891;47.242;8.648;2023-01-26T04:01:46;96630.38;;;1.06;96.67
54994;BME280;40891;47.242;8.648;2023-01-26T04:04:30;96622.56;;;1.08;95.73
54994;BME280;40891;47.242;8.648;2023-01-26T04:07:14;96626.91;;;1.23;95.21
54994;BME280;40891;47.242;8.648;2023-01-26T04:09:57;96617.50;;;1.17;95.36
54994;BME280;40891;47.242;8.648;2023-01-26T04:12:23;96624.53;;;1.18;96.03
54994;BME280;40891;47.242;8.648;2023-01-26T04:14:48;96621.78;;;1.15;95.72
54994;BME280;40891;47.242;8.648;2023-01-26T04:17:32;96611.97;;;1.07;94.91
54994;BME280;40891;47.242;8.648;2023-01-26T04:20:16;96610.81;;;1.08;94.98
54994;BME280;40891;47.242;8.648;2023-01-26T04:23:00;96611.22;;;1.10;94.81
54994;BME280;40891;47.242;8.648;2023-01-26T04:25:25;96613.53;;;1.01;94.17
54994;BME280;40891;47.242;8.648;2023-01-26T04:27:50;96615.47;;;0.97;95.58
54994;BME280;40891;47.242;8.648;2023-01-26T04:30:16;96607.25;;;0.97;95.28
54994;BME280;40891;47.242;8.648;2023-01-26T04:32:43;96609.25;;;1.14;93.79
54994;BME280;40891;47.242;8.648;2023-01-26T04:35:09;96597.97;;;1.26;94.42
54994;BME280;40891;47.242;8.648;2023-01-26T04:37:35;96596.78;;;1.20;93.73
54994;BME280;40891;47.242;8.648;2023-01-26T04:40:01;96601.44;;;1.12;95.27
54994;BME280;40891;47.242;8.648;2023-01-26T04:42:26;96596.75;;;1.16;94.69
54994;BME280;40891;47.242;8.648;2023-01-26T04:44:52;96593.66;;;1.28;93.06
54994;BME280;40891;47.242;8.648;2023-01-26T04:47:18;96596.81;;;1.34;93.38
54994;BME280;40891;47.242;8.648;2023-01-26T04:49:44;96599.91;;;1.22;93.14
54994;BME280;40891;47.242;8.648;2023-01-26T04:52:09;96585.44;;;1.18;93.01
54994;BME280;40891;47.242;8.648;2023-01-26T04:54:34;96587.75;;;1.09;93.53
54994;BME280;40891;47.242;8.648;2023-01-26T04:57:00;96593.19;;;1.02;94.79
54994;BME280;40891;47.242;8.648;2023-01-26T04:59:26;96594.75;;;1.03;95.00
54994;BME280;40891;47.242;8.648;2023-01-26T05:01:52;96591.25;;;1.09;94.36
54994;BME280;40891;47.242;8.648;2023-01-26T05:04:17;96588.16;;;1.14;93.63
54994;BME280;40891;47.242;8.648;2023-01-26T05:06:42;96583.06;;;1.13;93.41
54994;BME280;40891;47.242;8.648;2023-01-26T05:09:08;96590.88;;;1.14;93.25
54994;BME280;40891;47.242;8.648;2023-01-26T05:11:34;96583.88;;;1.20;93.75
54994;BME280;40891;47.242;8.648;2023-01-26T05:14:00;96589.31;;;1.10;93.49
54994;BME280;40891;47.242;8.648;2023-01-26T05:16:25;96587.34;;;1.03;93.70
54994;BME280;40891;47.242;8.648;2023-01-26T05:18:52;96583.03;;;1.09;94.00
54994;BME280;40891;47.242;8.648;2023-01-26T05:21:17;96584.22;;;1.08;93.68
54994;BME280;40891;47.242;8.648;2023-01-26T05:23:43;96582.28;;;1.09;93.61
54994;BME280;40891;47.242;8.648;2023-01-26T05:26:08;96583.47;;;1.18;93.82
54994;BME280;40891;47.242;8.648;2023-01-26T05:28:34;96579.91;;;1.07;93.02
54994;BME280;40891;47.242;8.648;2023-01-26T05:30:59;96585.00;;;1.05;93.93
54994;BME280;40891;47.242;8.648;2023-01-26T05:33:25;96571.34;;;1.12;95.49
54994;BME280;40891;47.242;8.648;2023-01-26T05:35:51;96563.50;;;1.07;95.88
54994;BME280;40891;47.242;8.648;2023-01-26T05:38:17;96565.41;;;0.93;94.75
54994;BME280;40891;47.242;8.648;2023-01-26T05:40:43;96562.66;;;0.89;94.93
54994;BME280;40891;47.242;8.648;2023-01-26T05:43:09;96564.28;;;1.08;93.92
54994;BME280;40891;47.242;8.648;2023-01-26T05:45:34;96564.31;;;1.18;92.35
54994;BME280;40891;47.242;8.648;2023-01-26T05:48:00;96563.88;;;1.09;93.24
54994;BME280;40891;47.242;8.648;2023-01-26T05:50:26;96567.03;;;1.08;93.84
54994;BME280;40891;47.242;8.648;2023-01-26T05:52:52;96573.72;;;1.24;92.26
54994;BME280;40891;47.242;8.648;2023-01-26T05:55:18;96569.34;;;1.09;93.61
54994;BME280;40891;47.242;8.648;2023-01-26T05:57:43;96579.53;;;1.05;94.07
54994;BME280;40891;47.242;8.648;2023-01-26T06:00:11;96569.34;;;1.02;94.58
54994;BME280;40891;47.242;8.648;2023-01-26T06:02:36;96568.94;;;1.00;94.71
54994;BME280;40891;47.242;8.648;2023-01-26T06:05:03;96579.19;;;1.17;92.48
54994;BME280;40891;47.242;8.648;2023-01-26T06:07:28;96574.44;;;1.07;93.76
54994;BME280;40891;47.242;8.648;2023-01-26T06:09:54;96579.91;;;1.00;93.84
54994;BME280;40891;47.242;8.648;2023-01-26T06:12:22;96577.19;;;1.04;93.50
54994;BME280;40891;47.242;8.648;2023-01-26T06:14:47;96581.06;;;0.99;93.02
54994;BME280;40891;47.242;8.648;2023-01-26T06:17:14;96584.59;;;1.07;92.44
54994;BME280;40891;47.242;8.648;2023-01-26T06:19:40;96578.38;;;1.10;92.21
54994;BME280;40891;47.242;8.648;2023-01-26T06:22:12;96582.66;;;1.07;91.60
54994;BME280;40891;47.242;8.648;2023-01-26T06:24:38;96587.75;;;1.09;91.61
54994;BME280;40891;47.242;8.648;2023-01-26T06:27:06;96586.16;;;1.04;92.41
54994;BME280;40891;47.242;8.648;2023-01-26T06:29:32;96587.31;;;0.96;91.91
54994;BME280;40891;47.242;8.648;2023-01-26T06:31:58;96586.56;;;0.99;91.71
54994;BME280;40891;47.242;8.648;2023-01-26T06:34:24;96588.16;;;1.14;89.48
54994;BME280;40891;47.242;8.648;2023-01-26T06:36:49;96583.44;;;1.08;90.63
54994;BME280;40891;47.242;8.648;2023-01-26T06:39:15;96585.03;;;1.16;88.84
54994;BME280;40891;47.242;8.648;2023-01-26T06:41:41;96584.28;;;1.29;89.35
54994;BME280;40891;47.242;8.648;2023-01-26T06:44:08;96586.22;;;1.22;88.59
54994;BME280;40891;47.242;8.648;2023-01-26T06:46:33;96587.78;;;1.16;89.71
54994;BME280;40891;47.242;8.648;2023-01-26T06:49:01;96590.88;;;1.14;88.01
54994;BME280;40891;47.242;8.648;2023-01-26T06:54:04;96590.88;;;1.07;90.00
54994;BME280;40891;47.242;8.648;2023-01-26T06:56:34;96587.38;;;1.17;88.58
54994;BME280;40891;47.242;8.648;2023-01-26T06:58:59;96584.66;;;1.21;87.48
54994;BME280;40891;47.242;8.648;2023-01-26T07:01:25;96588.59;;;1.30;86.72
54994;BME280;40891;47.242;8.648;2023-01-26T07:03:52;96581.53;;;1.22;86.51
54994;BME280;40891;47.242;8.648;2023-01-26T07:06:18;96585.03;;;1.16;86.29
54994;BME280;40891;47.242;8.648;2023-01-26T07:08:44;96586.19;;;1.15;86.01
54994;BME280;40891;47.242;8.648;2023-01-26T07:11:10;96579.91;;;0.97;87.95
54994;BME280;40891;47.242;8.648;2023-01-26T07:13:35;96584.22;;;1.05;86.53
54994;BME280;40891;47.242;8.648;2023-01-26T07:16:15;96586.56;;;1.03;86.83
54994;BME280;40891;47.242;8.648;2023-01-26T07:18:41;96579.88;;;0.90;86.79
54994;BME280;40891;47.242;8.648;2023-01-26T07:21:10;96583.38;;;0.90;86.83
54994;BME280;40891;47.242;8.648;2023-01-26T07:23:35;96583.00;;;0.95;86.18
54994;BME280;40891;47.242;8.648;2023-01-26T07:26:01;96575.59;;;0.99;87.12
54994;BME280;40891;47.242;8.648;2023-01-26T07:28:26;96575.19;;;0.94;86.98
54994;BME280;40891;47.242;8.648;2023-01-26T07:30:57;96567.41;;;1.06;86.28
54994;BME280;40891;47.242;8.648;2023-01-26T07:33:22;96574.44;;;1.04;86.44
54994;BME280;40891;47.242;8.648;2023-01-26T07:35:51;96573.25;;;1.01;86.59
54994;BME280;40891;47.242;8.648;2023-01-26T07:38:17;96570.53;;;1.01;87.26
54994;BME280;40891;47.242;8.648;2023-01-26T07:40:42;96579.13;;;1.07;85.84
54994;BME280;40891;47.242;8.648;2023-01-26T07:43:07;96572.47;;;1.01;86.33
54994;BME280;40891;47.242;8.648;2023-01-26T07:45:33;96572.91;;;1.13;85.29
54994;BME280;40891;47.242;8.648;2023-01-26T07:48:00;96574.84;;;1.09;85.75
54994;BME280;40891;47.242;8.648;2023-01-26T07:50:25;96580.69;;;1.04;87.02
54994;BME280;40891;47.242;8.648;2023-01-26T07:52:51;96579.56;;;1.16;85.91
54994;BME280;40891;47.242;8.648;2023-01-26T07:55:17;96566.25;;;1.14;86.24
54994;BME280;40891;47.242;8.648;2023-01-26T07:57:47;96572.13;;;1.16;85.79
54994;BME280;40891;47.242;8.648;2023-01-26T08:00:12;96572.94;;;1.27;85.74
54994;BME280;40891;47.242;8.648;2023-01-26T08:02:38;96568.25;;;1.31;85.01
54994;BME280;40891;47.242;8.648;2023-01-26T08:05:04;96567.84;;;1.26;85.47
54994;BME280;40891;47.242;8.648;2023-01-26T08:07:29;96563.53;;;1.21;85.58
54994;BME280;40891;47.242;8.648;2023-01-26T08:09:54;96564.31;;;1.22;84.47
54994;BME280;40891;47.242;8.648;2023-01-26T08:12:19;96572.97;;;1.34;84.35
54994;BME280;40891;47.242;8.648;2023-01-26T08:14:45;96572.97;;;1.34;85.22
54994;BME280;40891;47.242;8.648;2023-01-26T08:17:11;96571.00;;;1.31;85.07
54994;BME280;40891;47.242;8.648;2023-01-26T08:19:36;96568.22;;;1.21;85.15
54994;BME280;40891;47.242;8.648;2023-01-26T08:22:01;96569.03;;;1.35;84.64
54994;BME280;40891;47.242;8.648;2023-01-26T08:24:27;96574.91;;;1.30;84.36
54994;BME280;40891;47.242;8.648;2023-01-26T08:26:52;96571.38;;;1.33;84.02
54994;BME280;40891;47.242;8.648;2023-01-26T08:29:18;96570.63;;;1.36;83.70
54994;BME280;40891;47.242;8.648;2023-01-26T08:31:45;96572.19;;;1.34;82.36
54994;BME280;40891;47.242;8.648;2023-01-26T08:34:10;96576.09;;;1.36;83.07
54994;BME280;40891;47.242;8.648;2023-01-26T08:36:37;96572.97;;;1.38;83.41
54994;BME280;40891;47.242;8.648;2023-01-26T08:39:02;96575.31;;;1.43;82.32
54994;BME280;40891;47.242;8.648;2023-01-26T08:41:28;96576.88;;;1.48;83.11
54994;BME280;40891;47.242;8.648;2023-01-26T08:43:54;96578.44;;;1.45;83.57
54994;BME280;40891;47.242;8.648;2023-01-26T08:46:23;96570.66;;;1.51;82.98
54994;BME280;40891;47.242;8.648;2023-01-26T08:48:48;96580.41;;;1.52;81.72
54994;BME280;40891;47.242;8.648;2023-01-26T08:51:13;96578.47;;;1.49;82.36
54994;BME280;40891;47.242;8.648;2023-01-26T08:53:39;96574.16;;;1.55;82.40
54994;BME280;40891;47.242;8.648;2023-01-26T08:56:06;96579.25;;;1.46;81.51
54994;BME280;40891;47.242;8.648;2023-01-26T08:58:32;96574.56;;;1.46;82.54
54994;BME280;40891;47.242;8.648;2023-01-26T09:00:58;96568.28;;;1.46;83.20
54994;BME280;40891;47.242;8.648;2023-01-26T09:03:24;96571.41;;;1.41;83.08
54994;BME280;40891;47.242;8.648;2023-01-26T09:05:50;96570.25;;;1.56;82.39
54994;BME280;40891;47.242;8.648;2023-01-26T09:08:15;96574.19;;;1.58;81.72
54994;BME280;40891;47.242;8.648;2023-01-26T09:10:40;96565.97;;;1.51;81.92
54994;BME280;40891;47.242;8.648;2023-01-26T09:13:09;96559.69;;;1.54;80.84
54994;BME280;40891;47.242;8.648;2023-01-26T09:15:36;96570.25;;;1.52;80.81
54994;BME280;40891;47.242;8.648;2023-01-26T09:18:01;96568.28;;;1.53;81.50
54994;BME280;40891;47.242;8.648;2023-01-26T09:20:27;96571.41;;;1.44;81.59
54994;BME280;40891;47.242;8.648;2023-01-26T09:22:52;96573.75;;;1.49;82.25
54994;BME280;40891;47.242;8.648;2023-01-26T09:25:18;96573.00;;;1.56;81.19
54994;BME280;40891;47.242;8.648;2023-01-26T09:27:43;96567.13;;;1.54;82.13
54994;BME280;40891;47.242;8.648;2023-01-26T09:30:09;96571.44;;;1.65;81.50
54994;BME280;40891;47.242;8.648;2023-01-26T09:32:34;96570.28;;;1.70;80.24
54994;BME280;40891;47.242;8.648;2023-01-26T09:35:00;96574.56;;;1.60;80.14
54994;BME280;40891;47.242;8.648;2023-01-26T09:37:25;96578.88;;;1.65;80.05
54994;BME280;40891;47.242;8.648;2023-01-26T09:39:51;96583.97;;;1.56;80.64
54994;BME280;40891;47.242;8.648;2023-01-26T09:42:26;96578.50;;;1.63;80.78
54994;BME280;40891;47.242;8.648;2023-01-26T09:45:08;96573.38;;;1.61;79.89
54994;BME280;40891;47.242;8.648;2023-01-26T09:50:20;96577.66;;;1.52;80.68
54994;BME280;40891;47.242;8.648;2023-01-26T09:52:52;96587.44;;;1.49;81.78
54994;BME280;40891;47.242;8.648;2023-01-26T09:55:20;96583.97;;;1.63;79.92
54994;BME280;40891;47.242;8.648;2023-01-26T09:57:51;96579.25;;;1.60;80.02
54994;BME280;40891;47.242;8.648;2023-01-26T10:00:25;96582.00;;;1.56;80.90
54994;BME280;40891;47.242;8.648;2023-01-26T10:05:39;96574.19;;;1.72;79.77
54994;BME280;40891;47.242;8.648;2023-01-26T10:08:14;96570.25;;;1.80;79.80
54994;BME280;40891;47.242;8.648;2023-01-26T10:10:45;96575.38;;;1.61;80.04
54994;BME280;40891;47.242;8.648;2023-01-26T10:13:13;96562.84;;;1.63;81.09
54994;BME280;40891;47.242;8.648;2023-01-26T10:15:47;96569.50;;;1.69;80.96
54994;BME280;40891;47.242;8.648;2023-01-26T10:18:21;96562.84;;;1.74;79.70
54994;BME280;40891;47.242;8.648;2023-01-26T10:20:52;96568.69;;;1.76;79.59
54994;BME280;40891;47.242;8.648;2023-01-26T10:23:27;96571.06;;;1.88;79.33
54994;BME280;40891;47.242;8.648;2023-01-26T10:25:57;96561.66;;;1.85;79.10
54994;BME280;40891;47.242;8.648;2023-01-26T10:28:31;96565.97;;;1.83;79.19
54994;BME280;40891;47.242;8.648;2023-01-26T10:30:59;96561.28;;;1.83;80.94
54994;BME280;40891;47.242;8.648;2023-01-26T10:33:30;96559.31;;;1.80;78.99
54994;BME280;40891;47.242;8.648;2023-01-26T10:35:57;96556.56;;;1.77;78.56
54994;BME280;40891;47.242;8.648;2023-01-26T10:38:42;96551.06;;;1.94;79.30
54994;BME280;40891;47.242;8.648;2023-01-26T10:46:41;96542.47;;;1.96;80.11
54994;BME280;40891;47.242;8.648;2023-01-26T10:51:33;96538.94;;;2.02;78.93
54994;BME280;40891;47.242;8.648;2023-01-26T10:56:58;96540.09;;;2.08;78.18
54994;BME280;40891;47.242;8.648;2023-01-26T11:00:05;96537.38;;;2.05;78.83
54994;BME280;40891;47.242;8.648;2023-01-26T11:02:33;96543.25;;;1.96;78.67
54994;BME280;40891;47.242;8.648;2023-01-26T11:07:38;96531.13;;;2.01;79.24
54994;BME280;40891;47.242;8.648;2023-01-26T11:10:21;96532.28;;;1.96;79.75
54994;BME280;40891;47.242;8.648;2023-01-26T11:12:47;96529.16;;;1.94;79.19
54994;BME280;40891;47.242;8.648;2023-01-26T11:15:22;96533.88;;;1.94;80.19
54994;BME280;40891;47.242;8.648;2023-01-26T11:18:01;96533.84;;;1.97;79.57
54994;BME280;40891;47.242;8.648;2023-01-26T11:20:49;96524.06;;;1.86;79.98
54994;BME280;40891;47.242;8.648;2023-01-26T11:32:24;96533.84;;;1.80;82.70
54994;BME280;40891;47.242;8.648;2023-01-26T11:35:11;96526.03;;;2.03;83.04
54994;BME280;40891;47.242;8.648;2023-01-26T11:40:44;96530.69;;;2.06;83.43
54994;BME280;40891;47.242;8.648;2023-01-26T11:46:45;96513.44;;;2.23;83.06
54994;BME280;40891;47.242;8.648;2023-01-26T11:57:25;96521.25;;;2.35;81.78
54994;BME280;40891;47.242;8.648;2023-01-26T12:00:11;96513.06;;;2.32;82.32
54994;BME280;40891;47.242;8.648;2023-01-26T12:02:38;96508.72;;;2.27;82.08
54994;BME280;40891;47.242;8.648;2023-01-26T12:05:13;96511.88;;;2.29;82.73
54994;BME280;40891;47.242;8.648;2023-01-26T12:07:51;96516.56;;;2.25;82.31
54994;BME280;40891;47.242;8.648;2023-01-26T12:10:38;96509.91;;;2.26;80.71
54994;BME280;40891;47.242;8.648;2023-01-26T12:13:35;96511.50;;;2.13;82.26
54994;BME280;40891;47.242;8.648;2023-01-26T12:16:10;96503.69;;;2.15;81.83
54994;BME280;40891;47.242;8.648;2023-01-26T12:18:42;96503.25;;;2.24;80.72
54994;BME280;40891;47.242;8.648;2023-01-26T12:21:10;96499.75;;;2.09;81.64
54994;BME280;40891;47.242;8.648;2023-01-26T12:26:13;96501.34;;;1.99;83.38
54994;BME280;40891;47.242;8.648;2023-01-26T12:29:20;96500.16;;;2.04;82.78
54994;BME280;40891;47.242;8.648;2023-01-26T12:31:53;96492.31;;;2.10;82.73
54994;BME280;40891;47.242;8.648;2023-01-26T12:34:26;96484.47;;;2.12;83.73
54994;BME280;40891;47.242;8.648;2023-01-26T12:39:34;96486.44;;;2.04;84.54
54994;BME280;40891;47.242;8.648;2023-01-26T12:44:41;96487.66;;;2.03;84.96
54994;BME280;40891;47.242;8.648;2023-01-26T12:47:13;96481.38;;;2.02;84.63
54994;BME280;40891;47.242;8.648;2023-01-26T12:49:49;96476.66;;;2.06;83.91
54994;BME280;40891;47.242;8.648;2023-01-26T12:55:20;96474.31;;;2.01;84.23
54994;BME280;40891;47.242;8.648;2023-01-26T12:58:11;96480.19;;;2.11;83.91
54994;BME280;40891;47.242;8.648;2023-01-26T13:00:39;96477.44;;;2.18;83.85
54994;BME280;40891;47.242;8.648;2023-01-26T13:03:20;96474.28;;;2.08;82.45
54994;BME280;40891;47.242;8.648;2023-01-26T13:05:56;96469.97;;;2.18;82.52
54994;BME280;40891;47.242;8.648;2023-01-26T13:11:00;96473.91;;;2.14;81.98
54994;BME280;40891;47.242;8.648;2023-01-26T13:13:32;96478.22;;;2.15;82.91
54994;BME280;40891;47.242;8.648;2023-01-26T13:26:46;96465.69;;;2.10;85.09
54994;BME280;40891;47.242;8.648;2023-01-26T13:31:50;96458.66;;;2.02;86.05
54994;BME280;40891;47.242;8.648;2023-01-26T13:34:18;96463.38;;;1.94;86.92
54994;BME280;40891;47.242;8.648;2023-01-26T13:36:47;96462.63;;;1.87;87.63
54994;BME280;40891;47.242;8.648;2023-01-26T13:39:31;96469.66;;;1.91;87.42
54994;BME280;40891;47.242;8.648;2023-01-26T13:41:58;96456.31;;;1.97;88.68
54994;BME280;40891;47.242;8.648;2023-01-26T13:44:36;96470.41;;;1.99;88.54
54994;BME280;40891;47.242;8.648;2023-01-26T13:47:12;96463.75;;;1.89;88.84
54994;BME280;40891;47.242;8.648;2023-01-26T13:49:41;96460.22;;;2.03;88.37
54994;BME280;40891;47.242;8.648;2023-01-26T13:52:19;96456.34;;;1.93;88.96
54994;BME280;40891;47.242;8.648;2023-01-26T13:54:46;96457.13;;;1.94;88.54
54994;BME280;40891;47.242;8.648;2023-01-26T13:57:27;96460.25;;;1.92;89.08
54994;BME280;40891;47.242;8.648;2023-01-26T13:59:59;96461.00;;;1.89;89.37
54994;BME280;40891;47.242;8.648;2023-01-26T14:02:31;96461.03;;;1.86;90.10
54994;BME280;40891;47.242;8.648;2023-01-26T14:04:58;96450.06;;;1.86;90.35
54994;BME280;40891;47.242;8.648;2023-01-26T14:07:27;96451.25;;;1.85;90.24
54994;BME280;40891;47.242;8.648;2023-01-26T14:09:54;96449.28;;;1.89;90.05
54994;BME280;40891;47.242;8.648;2023-01-26T14:12:24;96453.97;;;1.92;89.53
54994;BME280;40891;47.242;8.648;2023-01-26T14:14:53;96450.06;;;1.89;90.31
54994;BME280;40891;47.242;8.648;2023-01-26T14:17:33;96450.47;;;1.84;90.56
54994;BME280;40891;47.242;8.648;2023-01-26T14:19:59;96450.88;;;1.86;90.07
54994;BME280;40891;47.242;8.648;2023-01-26T14:22:29;96453.22;;;1.81;91.08
54994;BME280;40891;47.242;8.648;2023-01-26T14:24:54;96449.31;;;1.82;90.66
54994;BME280;40891;47.242;8.648;2023-01-26T14:27:39;96451.66;;;1.87;90.43
54994;BME280;40891;47.242;8.648;2023-01-26T14:30:27;96446.97;;;1.77;90.92
54994;BME280;40891;47.242;8.648;2023-01-26T14:33:11;96445.78;;;1.71;91.68
54994;BME280;40891;47.242;8.648;2023-01-26T14:35:37;96445.00;;;1.74;92.22